Latest Weather Observations for Noonamah

IDD60901

Issued at 8:41 am CST Wednesday 22 February 2017 (issued every 10 minutes, with the page automatically refreshed every 10 minutes)

About weather observations | Map of Darwin area stations | Latest observations for Darwin area | Other Formats
Station Details ID: 014314 Name: NOONAMAH AIRSTRIP Lat: -12.61 Lon: 131.05 Height: 17.5 m
Data from the previous 72 hours. | See also: Recent months at Noonamah
Date/Time
CST
Temp
°C
App
Temp
°C
Dew
Point
°C
Rel
Hum
%
Delta-T
°C
Wind Press
QNH
hPa
Press
MSL
hPa
Rain since
9am
mm
Dir  Spd
km/h
Gust
km/h
Spd
kts
Gust
kts
22/08:30am 27.0 32.3 25.2 90 1.3 WSW 7 9 4 5 1011.2 1011.0 0.0
22/08:00am 25.4 31.4 24.2 93 0.8 CALM 0 0 0 0 1011.0 1010.8 0.0
22/07:30am 24.0 29.4 23.3 96 0.5 CALM 0 0 0 0 1010.7 1010.5 0.0
22/07:00am 22.8 27.5 22.0 95 0.5 CALM 0 0 0 0 1010.5 1010.3 0.0
22/06:30am 22.8 27.5 22.0 95 0.5 CALM 0 0 0 0 1010.1 1009.9 0.0
22/06:00am 23.3 28.3 22.5 95 0.5 CALM 0 0 0 0 1009.9 1009.7 0.0
22/05:30am 23.3 28.3 22.5 95 0.5 CALM 0 0 0 0 1009.6 1009.4 0.0
22/05:00am 23.3 28.3 22.5 95 0.5 CALM 0 0 0 0 1009.3 1009.1 0.0
22/04:30am 23.5 28.7 22.8 96 0.5 CALM 0 0 0 0 1009.0 1008.8 0.0
22/04:00am 23.5 28.6 22.7 95 0.5 CALM 0 0 0 0 1008.7 1008.5 0.0
22/03:30am 23.4 28.5 22.6 95 0.5 CALM 0 0 0 0 1008.5 1008.3 0.0
22/03:00am 23.6 28.7 22.6 94 0.7 CALM 0 0 0 0 1008.5 1008.3 0.0
22/02:30am 23.9 29.1 22.9 94 0.7 CALM 0 0 0 0 1008.6 1008.4 0.0
22/02:00am 24.1 29.5 23.2 95 0.6 CALM 0 0 0 0 1008.8 1008.6 0.0
22/01:30am 24.1 29.4 23.1 94 0.7 CALM 0 0 0 0 1009.1 1008.9 0.0
22/01:00am 24.5 30.1 23.5 94 0.7 CALM 0 0 0 0 1009.3 1009.1 0.0
22/12:30am 24.8 30.5 23.8 94 0.7 CALM 0 0 0 0 1009.6 1009.4 0.0
22/12:00am 25.1 30.9 23.9 93 0.8 CALM 0 0 0 0 1010.0 1009.8 0.0
 
Date/Time
CST
Temp
°C
App
Temp
°C
Dew
Point
°C
Rel
Hum
%
Delta-T
°C
Wind Press
QNH
hPa
Press
MSL
hPa
Rain since
9am
mm
Dir  Spd
km/h
Gust
km/h
Spd
kts
Gust
kts
21/11:30pm 25.5 31.4 24.1 92 1.0 CALM 0 0 0 0 1010.2 1010.0 0.0
21/11:00pm 25.6 30.9 24.4 93 0.8 NW 4 4 2 2 1010.2 1010.0 0.0
21/10:30pm 26.0 31.3 24.4 91 1.1 W 4 6 2 3 1010.2 1010.0 0.0
21/10:00pm 26.3 31.7 24.5 90 1.2 WNW 4 4 2 2 1010.0 1009.8 0.0
21/09:30pm 26.6 31.9 24.4 88 1.5 WNW 4 4 2 2 1009.7 1009.5 0.0
21/09:00pm 27.2 33.0 24.5 85 1.9 NW 2 2 1 1 1009.4 1009.2 0.0
21/08:30pm 28.2 33.5 24.4 80 2.6 W 4 6 2 3 1009.3 1009.1 0.0
21/08:00pm 28.6 33.9 24.4 78 2.9 NW 4 4 2 2 1009.0 1008.8 0.0
21/07:30pm 29.3 34.2 24.4 75 3.4 NW 6 11 3 6 1008.6 1008.4 0.0
21/07:00pm 30.5 35.1 24.2 69 4.4 NW 7 11 4 6 1008.4 1008.2 0.0
21/06:30pm 32.2 36.4 23.4 59 6.1 WNW 7 11 4 6 1008.1 1007.9 0.0
21/06:00pm 34.1 35.7 16.9 36 11.0 SSW 4 6 2 3 1007.7 1007.5 0.0
21/05:30pm 34.7 36.1 16.5 33 11.6 SSW 4 7 2 4 1007.5 1007.3 0.0
21/05:00pm 35.0 35.2 14.8 29 12.5 SSW 7 15 4 8 1007.4 1007.2 0.0
21/04:30pm 35.1 35.7 16.9 34 11.7 SSW 9 19 5 10 1007.3 1007.1 0.0
21/04:00pm 35.2 35.5 15.0 30 12.6 S 7 15 4 8 1007.4 1007.2 0.0
21/03:30pm 34.9 35.1 14.7 29 12.5 SW 7 11 4 6 1007.5 1007.3 0.0
21/03:00pm 35.0 35.4 16.3 32 11.9 SSW 9 19 5 10 1007.8 1007.6 0.0
21/02:30pm 34.6 35.3 16.0 33 11.8 SW 7 13 4 7 1008.2 1008.0 0.0
21/02:00pm 34.0 34.1 15.5 33 11.6 S 9 20 5 11 1008.7 1008.5 0.0
21/01:30pm 34.2 35.1 16.5 34 11.2 SSW 7 17 4 9 1009.3 1009.1 0.0
21/01:00pm 33.8 34.7 16.2 35 11.1 SSW 6 17 3 9 1009.9 1009.7 0.0
21/12:30pm 33.5 35.4 17.6 38 10.2 WSW 4 13 2 7 1010.6 1010.4 0.0
21/12:00pm 33.0 35.4 18.7 42 9.3 W 4 7 2 4 1010.9 1010.7 0.0
21/11:30am 32.3 33.8 17.7 41 9.4 SW 6 11 3 6 1011.3 1011.1 0.0
21/11:00am 31.6 33.2 17.9 44 8.8 WSW 6 9 3 5 1011.7 1011.5 0.0
21/10:30am 31.1 33.2 18.1 46 8.4 W 4 7 2 4 1011.9 1011.7 0.0
21/10:00am 30.6 32.7 19.0 50 7.5 SSW 6 9 3 5 1012.0 1011.8 0.0
21/09:30am 29.4 32.9 22.1 65 4.9 SSW 7 13 4 7 1012.0 1011.8 0.0
21/09:00am 28.0 32.8 24.2 80 2.6 SW 6 11 3 6 1011.9 1011.7 0.0
21/08:30am 27.0 32.8 25.2 90 1.3 SW 4 6 2 3 1011.4 1011.2 0.0
21/08:00am 25.8 32.1 24.8 94 0.7 CALM 0 4 0 2 1010.8 1010.6 0.0
21/07:30am 24.3 29.9 23.6 96 0.5 CALM 0 0 0 0 1010.3 1010.1 0.0
21/07:00am 23.5 28.7 22.8 96 0.5 CALM 0 0 0 0 1009.7 1009.5 0.0
21/06:30am 23.8 29.2 23.3 97 0.3 CALM 0 0 0 0 1009.2 1009.0 0.0
21/06:00am 23.5 28.6 22.7 95 0.5 CALM 0 0 0 0 1008.9 1008.7 0.0
21/05:30am 23.5 28.6 22.7 95 0.5 CALM 0 0 0 0 1008.5 1008.3 0.0
21/05:00am 23.6 28.8 22.8 95 0.5 CALM 0 0 0 0 1008.2 1008.0 0.0
21/04:30am 23.8 29.1 23.0 95 0.5 CALM 0 0 0 0 1008.1 1007.9 0.0
21/04:00am 24.1 29.5 23.2 95 0.6 CALM 0 0 0 0 1007.9 1007.7 0.0
21/03:30am 24.2 29.6 23.3 95 0.6 CALM 0 0 0 0 1008.0 1007.8 0.0
21/03:00am 24.4 30.0 23.5 95 0.6 CALM 0 0 0 0 1008.2 1008.0 0.0
21/02:30am 24.8 30.5 23.8 94 0.7 CALM 0 0 0 0 1008.3 1008.1 0.0
21/02:00am 25.0 30.8 24.0 94 0.7 CALM 0 2 0 1 1008.4 1008.2 0.0
21/01:30am 25.5 30.8 24.3 93 0.8 SW 4 4 2 2 1008.6 1008.4 0.0
21/01:00am 25.9 31.5 24.9 94 0.7 WSW 4 6 2 3 1008.8 1008.6 0.0
21/12:30am 26.1 31.6 24.7 92 1.0 W 4 6 2 3 1009.1 1008.9 0.0
21/12:00am 26.4 31.6 24.8 91 1.1 W 6 9 3 5 1009.3 1009.1 0.0
 
Date/Time
CST
Temp
°C
App
Temp
°C
Dew
Point
°C
Rel
Hum
%
Delta-T
°C
Wind Press
QNH
hPa
Press
MSL
hPa
Rain since
9am
mm
Dir  Spd
km/h
Gust
km/h
Spd
kts
Gust
kts
20/11:30pm 26.2 31.9 25.0 93 0.8 W 4 6 2 3 1009.5 1009.3 0.0
20/11:00pm 26.5 32.1 24.9 91 1.1 W 4 6 2 3 1009.5 1009.3 0.0
20/10:30pm 27.0 32.8 25.2 90 1.3 W 4 6 2 3 1009.4 1009.2 0.0
20/10:00pm 27.2 33.0 25.2 89 1.4 WNW 4 6 2 3 1009.3 1009.1 0.0
20/09:30pm 27.6 33.2 25.4 88 1.5 WNW 6 9 3 5 1009.0 1008.8 0.0
20/09:00pm 27.6 33.2 25.4 88 1.5 WNW 6 7 3 4 1008.8 1008.6 0.0
20/08:30pm 28.1 34.0 25.3 85 2.0 NW 4 6 2 3 1008.4 1008.2 0.0
20/08:00pm 28.8 34.0 24.8 79 2.8 NNW 6 7 3 4 1008.2 1008.0 0.0
20/07:30pm 29.4 34.0 24.7 76 3.3 NNW 9 13 5 7 1007.7 1007.5 0.0
20/07:00pm 31.0 35.9 22.3 60 5.9 CALM 0 7 0 4 1007.3 1007.1 0.0
20/06:30pm 33.2 36.4 20.4 47 8.6 SSW 4 6 2 3 1006.8 1006.6 0.0
20/06:00pm 34.1 36.1 17.8 38 10.6 SSW 4 7 2 4 1006.4 1006.2 0.0
20/05:30pm 34.3 35.9 17.9 37 10.6 S 6 13 3 7 1006.0 1005.8 0.0
20/05:00pm 34.6 34.9 16.0 33 11.7 SSE 9 19 5 10 1005.7 1005.5 0.0
20/04:30pm 34.7 35.9 17.4 35 11.2 S 7 13 4 7 1005.4 1005.2 0.0
20/04:00pm 34.4 35.7 17.2 36 11.0 SSE 6 13 3 7 1005.5 1005.3 0.0
20/03:30pm 34.0 35.5 17.7 38 10.5 SSW 6 19 3 10 1005.6 1005.4 0.0
20/03:00pm 34.2 36.3 19.4 41 9.8 SSE 7 13 4 7 1005.9 1005.7 0.0
20/02:30pm 34.0 36.1 19.3 42 9.7 SSE 7 17 4 9 1006.3 1006.1 0.0
20/02:00pm 34.3 37.5 21.7 47 8.6 S 7 13 4 7 1006.8 1006.6 0.0
20/01:30pm 33.7 37.0 21.8 49 8.1 S 7 13 4 7 1007.1 1006.9 0.0
20/01:00pm 32.4 35.4 21.3 52 7.5 S 7 13 4 7 1007.6 1007.4 0.0
20/12:30pm 33.0 35.8 20.9 49 8.1 SSE 7 15 4 8 1008.1 1007.9 0.0
20/12:00pm 32.4 36.1 22.2 55 7.0 SSE 6 13 3 7 1008.3 1008.1 0.0
20/11:30am 31.7 35.8 23.0 60 6.0 SSW 6 11 3 6 1008.5 1008.3 0.0
20/11:00am 31.1 36.1 25.4 71 4.0 SSW 9 17 5 9 1009.1 1008.9 0.0
20/10:30am 29.1 34.3 25.1 79 2.8 SSW 7 13 4 7 1009.4 1009.2 0.0
20/10:00am 29.1 35.0 24.7 77 3.1 WSW 2 7 1 4 1009.5 1009.3 0.0
20/09:30am 27.9 32.9 24.5 82 2.4 WNW 6 7 3 4 1009.6 1009.4 0.0
20/09:00am 27.1 32.3 24.2 84 2.0 W 4 6 2 3 1009.4 1009.2 12.6
20/08:30am 26.6 31.5 24.3 87 1.6 WNW 6 9 3 5 1009.3 1009.1 12.6
20/08:00am 25.5 31.5 24.3 93 0.8 CALM 0 0 0 0 1009.1 1008.9 12.6
20/07:30am 24.9 30.9 24.2 96 0.5 CALM 0 0 0 0 1008.6 1008.4 12.6
20/07:00am 24.5 30.3 24.0 97 0.3 CALM 0 0 0 0 1008.2 1008.0 12.6
20/06:30am 24.4 30.2 23.9 97 0.3 CALM 0 0 0 0 1007.8 1007.6 12.6
20/06:00am 24.5 30.3 24.0 97 0.3 CALM 0 0 0 0 1007.7 1007.5 12.6
20/05:30am 24.5 29.6 24.0 97 0.3 NNW 4 6 2 3 1007.6 1007.4 12.6
20/05:00am 24.5 30.2 23.8 96 0.5 CALM 0 0 0 0 1007.5 1007.3 12.6
20/04:30am 24.5 29.9 23.8 96 0.5 N 2 6 1 3 1007.6 1007.4 12.6
20/04:00am 24.3 29.5 23.6 96 0.5 NE 2 6 1 3 1007.4 1007.2 12.6
20/03:30am 24.3 28.8 23.6 96 0.5 ESE 6 7 3 4 1007.1 1006.9 12.6
20/03:00am 24.3 29.5 23.6 96 0.5 E 2 6 1 3 1006.6 1006.4 12.6
20/02:30am 24.1 29.6 23.4 96 0.5 CALM 0 2 0 1 1006.9 1006.7 12.6
20/02:00am 24.0 28.6 23.1 95 0.6 S 4 6 2 3 1007.6 1007.4 12.6
20/01:30am 23.9 28.0 23.0 95 0.6 S 6 9 3 5 1007.3 1007.1 12.6
20/01:00am 24.4 26.1 23.0 92 0.9 S 19 32 10 17 1008.5 1008.3 11.6
20/12:30am 26.4 32.4 25.5 95 0.6 W 4 6 2 3 1007.7 1007.5 6.0
20/12:00am 26.3 32.2 25.3 94 0.7 W 4 6 2 3 1007.8 1007.6 6.0
 
Date/Time
CST
Temp
°C
App
Temp
°C
Dew
Point
°C
Rel
Hum
%
Delta-T
°C
Wind Press
QNH
hPa
Press
MSL
hPa
Rain since
9am
mm
Dir  Spd
km/h
Gust
km/h
Spd
kts
Gust
kts
19/11:30pm 26.3 32.2 25.3 94 0.7 WSW 4 7 2 4 1007.9 1007.7 6.0
19/11:00pm 26.4 32.2 25.2 93 0.8 WNW 4 6 2 3 1007.9 1007.7 6.0
19/10:30pm 26.2 31.9 25.0 93 0.8 WSW 4 6 2 3 1008.1 1007.9 6.0
19/10:00pm 26.2 32.0 24.6 91 1.1 WSW 2 4 1 2 1007.9 1007.7 6.0
19/09:30pm 26.4 31.7 24.4 89 1.4 WNW 4 6 2 3 1007.7 1007.5 6.0
19/09:00pm 26.6 31.5 24.4 88 1.5 W 6 7 3 4 1007.2 1007.0 6.0
19/08:30pm 26.8 31.5 24.3 86 1.7 WSW 7 11 4 6 1006.6 1006.4 6.0
19/08:00pm 26.9 31.7 24.4 86 1.7 W 7 9 4 5 1006.5 1006.3 6.0
19/07:30pm 27.0 31.8 24.5 86 1.7 W 7 13 4 7 1006.1 1005.9 6.0
19/07:00pm 25.9 30.9 24.5 92 1.0 W 6 11 3 6 1005.7 1005.5 6.0
19/06:30pm 25.3 31.2 24.1 93 0.8 CALM 0 0 0 0 1005.5 1005.3 6.0
19/06:00pm 25.0 30.5 24.0 94 0.7 NNW 2 4 1 2 1005.1 1004.9 6.0
19/05:30pm 25.2 30.8 24.2 94 0.7 NNW 2 6 1 3 1005.1 1004.9 6.0
19/05:00pm 24.7 29.4 23.3 92 1.0 W 4 7 2 4 1005.0 1004.8 6.0
19/04:30pm 24.1 27.9 22.7 92 0.9 W 7 11 4 6 1004.8 1004.6 6.0
19/04:00pm 23.3 27.6 22.6 96 0.5 NW 4 9 2 5 1005.4 1005.2 6.0
19/03:30pm 22.8 25.6 21.6 93 0.8 WNW 9 17 5 9 1006.6 1006.4 5.6
19/03:09pm 26.7 25.3 19.6 65 4.6 SSE 26 44 14 24 1006.9 1006.7 0.0
19/03:00pm 31.7 35.8 24.6 66 5.0 W 11 35 6 19 1006.5 1006.3 0.0
19/02:30pm 32.3 35.3 24.6 64 5.4 WNW 17 24 9 13 1005.3 1005.1 0.0
19/02:00pm 32.1 35.9 25.9 70 4.4 NW 17 24 9 13 1005.3 1005.1 0.0
19/01:30pm 32.2 35.4 25.0 65 5.1 NW 17 24 9 13 1006.1 1005.9 0.0
19/01:00pm 32.3 35.9 25.6 67 4.8 NW 17 26 9 14 1006.7 1006.5 0.0
19/12:30pm 31.8 35.2 24.7 66 5.0 NW 15 26 8 14 1007.4 1007.2 0.0
19/12:00pm 31.6 35.0 25.2 69 4.5 NW 17 28 9 15 1008.1 1007.9 0.0
19/11:30am 31.8 35.3 25.4 69 4.5 NW 17 24 9 13 1008.5 1008.3 0.0
19/11:00am 32.0 35.1 24.8 65 5.1 WNW 17 24 9 13 1008.5 1008.3 0.0
19/10:30am 31.3 34.8 24.9 69 4.5 WNW 15 24 8 13 1008.6 1008.4 0.0
19/10:00am 30.3 35.3 26.0 78 3.1 NW 11 20 6 11 1008.7 1008.5 0.0
19/09:30am 28.1 33.6 25.3 85 2.0 NNW 6 9 3 5 1008.9 1008.7 0.0
19/09:00am 26.6 31.9 24.4 88 1.5 NNW 4 7 2 4 1008.7 1008.5 0.0

Latest Capital City Observations: Canberra | Sydney | Melbourne | Brisbane | Adelaide | Perth | Hobart | Darwin

Other Formats:

Comma delimited format used in spreadsheet applications
http://www.bom.gov.au/fwo/IDD60901/IDD60901.94105.axf

JavaScript Object Notation format (JSON) in row-major order
http://www.bom.gov.au/fwo/IDD60901/IDD60901.94105.json